createdAt,value
2017-12-31T00:00:16.500Z,35.30
2017-12-31T00:01:16.498Z,39.80
2017-12-31T00:02:16.478Z,40.70
2017-12-31T00:03:16.473Z,39.20
2017-12-31T00:04:16.464Z,33.90
2017-12-31T00:05:16.460Z,37.10
2017-12-31T00:06:16.447Z,30.80
2017-12-31T00:07:16.475Z,34.80
2017-12-31T00:08:16.434Z,33.50
2017-12-31T00:09:16.426Z,33.30
2017-12-31T00:10:16.415Z,37.20
2017-12-31T00:11:16.407Z,37.70
2017-12-31T00:12:16.406Z,39.00
2017-12-31T00:13:16.411Z,36.90
2017-12-31T00:14:16.389Z,31.50
2017-12-31T00:15:16.377Z,36.30
2017-12-31T00:16:16.372Z,37.40
2017-12-31T00:17:16.357Z,38.80
2017-12-31T00:18:16.348Z,43.00
2017-12-31T00:19:16.346Z,42.00
2017-12-31T00:20:16.343Z,45.20
2017-12-31T00:21:16.330Z,39.30
2017-12-31T00:22:16.321Z,37.20
2017-12-31T00:23:16.308Z,37.30
2017-12-31T00:24:16.299Z,40.10
2017-12-31T00:25:16.297Z,34.90
2017-12-31T00:26:16.293Z,34.30
2017-12-31T00:27:16.285Z,41.00
2017-12-31T00:28:16.284Z,33.10
2017-12-31T00:29:16.261Z,42.20
2017-12-31T00:30:16.250Z,43.30
2017-12-31T00:31:16.249Z,45.60
2017-12-31T00:32:16.240Z,41.30
2017-12-31T00:33:16.244Z,40.80
2017-12-31T00:34:16.227Z,40.50
2017-12-31T00:35:16.230Z,39.50
2017-12-31T00:36:16.203Z,43.10
2017-12-31T00:37:16.194Z,46.20
2017-12-31T00:38:16.184Z,46.20
2017-12-31T00:39:16.185Z,42.00
2017-12-31T00:40:16.177Z,43.70
2017-12-31T00:41:16.190Z,45.10
2017-12-31T00:42:16.153Z,38.40
2017-12-31T00:43:16.147Z,41.30
2017-12-31T00:44:16.141Z,44.60
2017-12-31T00:45:16.131Z,41.20
2017-12-31T00:46:16.123Z,44.40
2017-12-31T00:47:16.119Z,40.20
2017-12-31T00:48:16.110Z,49.20
2017-12-31T00:49:16.106Z,45.90
2017-12-31T00:50:16.093Z,42.10
2017-12-31T00:51:16.080Z,46.60
2017-12-31T00:52:16.079Z,45.00
2017-12-31T00:53:16.076Z,52.50
2017-12-31T00:54:16.070Z,47.80
2017-12-31T00:55:16.067Z,43.40
2017-12-31T00:56:16.043Z,49.30
2017-12-31T00:57:16.039Z,41.00
2017-12-31T00:58:16.068Z,49.00
2017-12-31T00:59:16.036Z,47.20
2017-12-31T01:00:16.030Z,42.90
2017-12-31T01:01:16.006Z,45.60
2017-12-31T01:02:15.993Z,38.50
2017-12-31T01:03:15.989Z,45.90
2017-12-31T01:04:15.970Z,41.40
2017-12-31T01:05:15.966Z,52.70
2017-12-31T01:06:15.959Z,46.50
2017-12-31T01:07:15.961Z,39.50
2017-12-31T01:08:15.954Z,40.40
2017-12-31T01:09:15.961Z,47.30
2017-12-31T01:10:15.927Z,43.70
2017-12-31T01:11:15.918Z,42.60
2017-12-31T01:12:15.907Z,38.50
2017-12-31T01:13:15.897Z,48.80
2017-12-31T01:14:15.907Z,44.60
2017-12-31T01:15:15.881Z,50.90
2017-12-31T01:16:15.886Z,50.60
2017-12-31T01:17:15.866Z,47.70
2017-12-31T01:18:15.859Z,42.70
2017-12-31T01:19:15.852Z,42.90
2017-12-31T01:20:15.843Z,56.40
2017-12-31T01:21:15.834Z,46.50
2017-12-31T01:22:15.825Z,48.20
2017-12-31T01:23:15.816Z,42.60
2017-12-31T01:24:15.845Z,43.10
2017-12-31T01:25:15.809Z,44.80
2017-12-31T01:26:15.797Z,54.90
2017-12-31T01:27:15.856Z,47.70
2017-12-31T01:28:15.809Z,50.50
2017-12-31T01:29:15.774Z,44.20
2017-12-31T01:30:15.762Z,39.50
2017-12-31T01:31:15.755Z,45.30
2017-12-31T01:33:53.167Z,49.00
2017-12-31T01:34:53.131Z,50.40
2017-12-31T01:36:50.668Z,38.80
2017-12-31T01:37:50.659Z,37.30
2017-12-31T01:38:50.647Z,49.40
2017-12-31T01:39:50.662Z,42.40
2017-12-31T01:40:50.633Z,38.80
2017-12-31T01:41:50.625Z,48.40
2017-12-31T01:42:50.615Z,47.80
2017-12-31T01:43:50.607Z,48.30
2017-12-31T01:44:50.601Z,47.00
2017-12-31T01:45:50.593Z,47.60
2017-12-31T01:46:50.583Z,39.10
2017-12-31T01:47:50.577Z,37.70
2017-12-31T01:48:50.566Z,35.00
2017-12-31T01:49:50.558Z,37.50
2017-12-31T01:50:50.576Z,42.10
2017-12-31T01:51:50.546Z,37.30
2017-12-31T01:52:50.766Z,32.20
2017-12-31T01:53:50.537Z,31.90
2017-12-31T01:54:50.516Z,35.60
2017-12-31T01:55:50.554Z,32.40
2017-12-31T01:56:50.514Z,31.90
2017-12-31T01:57:50.783Z,29.30
2017-12-31T01:58:50.502Z,29.30
2017-12-31T01:59:50.485Z,23.00
2017-12-31T02:00:50.472Z,33.90
2017-12-31T02:01:50.460Z,28.80
2017-12-31T02:02:50.465Z,25.90
2017-12-31T02:03:50.442Z,36.60
2017-12-31T02:04:50.436Z,25.50
2017-12-31T02:05:50.424Z,31.60
2017-12-31T02:06:50.415Z,34.00
2017-12-31T02:07:50.411Z,31.50
2017-12-31T02:08:50.411Z,28.70
2017-12-31T02:09:50.409Z,29.30
2017-12-31T02:10:50.389Z,30.70
2017-12-31T02:11:50.376Z,27.10
2017-12-31T02:12:50.410Z,30.30
2017-12-31T02:13:50.356Z,28.90
2017-12-31T02:14:50.358Z,29.30
2017-12-31T02:15:50.345Z,31.20
2017-12-31T02:16:50.335Z,30.50
2017-12-31T02:17:50.329Z,35.20
2017-12-31T02:18:50.315Z,29.80
2017-12-31T02:19:50.317Z,29.30
2017-12-31T02:20:50.305Z,31.80
2017-12-31T02:21:50.332Z,30.40
2017-12-31T02:22:51.001Z,24.70
2017-12-31T02:23:50.273Z,31.50
2017-12-31T02:24:50.265Z,37.50
2017-12-31T02:25:50.259Z,36.30
2017-12-31T02:26:50.285Z,32.20
2017-12-31T02:27:50.240Z,38.00
2017-12-31T02:28:50.233Z,30.50
2017-12-31T02:29:50.228Z,38.50
2017-12-31T02:30:50.230Z,31.50
2017-12-31T02:31:50.206Z,34.70
2017-12-31T02:32:50.199Z,40.40
2017-12-31T02:33:50.193Z,37.80
2017-12-31T02:34:50.183Z,34.40
2017-12-31T02:35:50.246Z,35.30
2017-12-31T02:36:50.168Z,39.50
2017-12-31T02:37:50.154Z,38.00
2017-12-31T02:38:50.152Z,35.20
2017-12-31T02:39:50.145Z,43.30
2017-12-31T02:40:52.230Z,38.60
2017-12-31T02:41:50.144Z,44.70
2017-12-31T02:42:50.118Z,41.00
2017-12-31T02:43:50.154Z,39.10
2017-12-31T02:44:50.096Z,44.90
2017-12-31T02:45:50.097Z,43.80
2017-12-31T02:46:50.080Z,40.40
2017-12-31T02:47:50.098Z,38.50
2017-12-31T02:48:50.069Z,36.20
2017-12-31T02:49:50.080Z,40.20
2017-12-31T02:50:50.049Z,34.50
2017-12-31T02:51:50.043Z,36.20
2017-12-31T02:52:50.029Z,38.40
2017-12-31T02:53:50.025Z,42.30
2017-12-31T02:54:50.027Z,41.80
2017-12-31T02:55:50.001Z,43.10
2017-12-31T02:56:50.010Z,35.90
2017-12-31T02:57:49.987Z,43.00
2017-12-31T02:58:49.987Z,43.50
2017-12-31T02:59:49.978Z,43.90
2017-12-31T03:00:49.978Z,41.20
2017-12-31T03:01:49.963Z,36.40
2017-12-31T03:02:49.947Z,43.40
2017-12-31T03:03:49.934Z,37.20
2017-12-31T03:04:49.925Z,41.60
2017-12-31T03:05:49.914Z,44.40
2017-12-31T03:06:49.903Z,39.60
2017-12-31T03:07:49.903Z,40.50
2017-12-31T03:08:49.902Z,40.70
2017-12-31T03:09:49.891Z,46.80
2017-12-31T03:10:49.874Z,44.20
2017-12-31T03:11:49.865Z,37.50
2017-12-31T03:12:49.859Z,40.30
2017-12-31T03:13:49.861Z,44.50
2017-12-31T03:14:49.836Z,45.20
2017-12-31T03:15:49.832Z,38.70
2017-12-31T03:16:49.824Z,36.80
2017-12-31T03:17:49.820Z,38.70
2017-12-31T03:18:49.832Z,43.90
2017-12-31T03:19:49.807Z,45.00
2017-12-31T03:20:49.798Z,42.80
2017-12-31T03:21:49.779Z,46.10
2017-12-31T03:22:49.782Z,41.50
2017-12-31T03:23:49.766Z,42.90
2017-12-31T03:24:49.777Z,53.70
2017-12-31T03:25:49.751Z,45.30
2017-12-31T03:26:49.743Z,52.30
2017-12-31T03:27:49.724Z,42.80
2017-12-31T03:28:49.730Z,44.10
2017-12-31T03:29:49.724Z,50.80
2017-12-31T03:30:49.702Z,59.70
2017-12-31T03:31:49.706Z,45.40
2017-12-31T03:32:49.682Z,49.90
2017-12-31T03:33:51.580Z,42.20
2017-12-31T03:34:49.672Z,56.40
2017-12-31T03:35:49.669Z,47.20
2017-12-31T03:36:49.665Z,39.60
2017-12-31T03:37:49.642Z,41.80
2017-12-31T03:38:49.658Z,58.20
2017-12-31T03:39:49.645Z,43.40
2017-12-31T03:40:49.644Z,40.80
2017-12-31T03:41:49.629Z,49.40
2017-12-31T03:42:49.606Z,46.20
2017-12-31T03:43:49.625Z,49.10
2017-12-31T03:44:49.600Z,46.30
2017-12-31T03:45:49.587Z,48.00
2017-12-31T03:46:49.588Z,52.80
2017-12-31T03:47:49.554Z,53.00
2017-12-31T03:48:49.569Z,46.40
2017-12-31T03:49:49.567Z,49.20
2017-12-31T03:50:49.546Z,45.60
2017-12-31T03:51:49.564Z,48.00
2017-12-31T03:52:49.528Z,43.70
2017-12-31T03:53:49.508Z,43.80
2017-12-31T03:54:49.495Z,50.70
2017-12-31T03:55:49.491Z,45.50
2017-12-31T03:56:49.480Z,48.60
2017-12-31T03:57:49.496Z,44.80
2017-12-31T03:58:49.483Z,52.10
2017-12-31T03:59:49.498Z,43.10
2017-12-31T04:00:49.455Z,43.30
2017-12-31T04:01:49.436Z,39.10
2017-12-31T04:02:49.440Z,55.40
2017-12-31T04:03:49.421Z,47.60
2017-12-31T04:04:49.437Z,54.10
2017-12-31T04:05:49.413Z,50.80
2017-12-31T04:06:49.393Z,43.30
2017-12-31T04:07:49.387Z,47.10
2017-12-31T04:08:49.377Z,42.30
2017-12-31T04:09:49.374Z,38.70
2017-12-31T04:10:49.373Z,40.40
2017-12-31T04:11:49.357Z,41.50
2017-12-31T04:12:49.348Z,33.50
2017-12-31T04:13:49.352Z,38.10
2017-12-31T04:14:49.327Z,35.00
2017-12-31T04:15:49.316Z,42.10
2017-12-31T04:16:49.303Z,33.60
2017-12-31T04:17:49.313Z,32.30
2017-12-31T04:18:49.323Z,32.80
2017-12-31T04:19:49.295Z,32.70
2017-12-31T04:20:49.272Z,41.30
2017-12-31T04:21:49.266Z,33.20
2017-12-31T04:22:49.261Z,35.60
2017-12-31T04:23:49.259Z,40.50
2017-12-31T04:24:49.251Z,39.50
2017-12-31T04:25:49.228Z,39.00
2017-12-31T04:26:49.229Z,32.60
2017-12-31T04:27:49.213Z,34.60
2017-12-31T04:28:49.201Z,33.20
2017-12-31T04:29:49.209Z,34.30
2017-12-31T04:30:49.190Z,31.40
2017-12-31T04:31:49.177Z,33.80
2017-12-31T04:32:49.173Z,37.00
2017-12-31T04:33:49.185Z,28.00
2017-12-31T04:34:51.092Z,36.40
2017-12-31T04:35:49.142Z,39.70
2017-12-31T04:36:49.162Z,35.00
2017-12-31T04:37:49.129Z,33.20
2017-12-31T04:38:49.117Z,28.70
2017-12-31T04:39:49.122Z,28.40
2017-12-31T04:40:49.099Z,31.60
2017-12-31T04:41:51.594Z,31.80
2017-12-31T04:42:49.080Z,35.60
2017-12-31T04:43:49.083Z,35.10
2017-12-31T04:44:49.070Z,36.30
2017-12-31T04:45:49.058Z,32.70
2017-12-31T04:46:49.047Z,30.70
2017-12-31T04:47:49.039Z,38.10
2017-12-31T04:48:49.031Z,27.20
2017-12-31T04:49:49.019Z,32.80
2017-12-31T04:50:49.012Z,26.60
2017-12-31T04:51:49.003Z,36.80
2017-12-31T04:52:48.997Z,23.20
2017-12-31T04:53:48.989Z,26.80
2017-12-31T04:54:48.975Z,33.30
2017-12-31T04:55:48.968Z,31.10
2017-12-31T04:56:48.969Z,33.10
2017-12-31T04:57:48.955Z,28.00
2017-12-31T04:58:48.943Z,24.60
2017-12-31T04:59:48.936Z,28.70
2017-12-31T05:00:48.927Z,29.40
2017-12-31T05:01:48.921Z,22.80
2017-12-31T05:02:48.909Z,27.50
2017-12-31T05:03:48.896Z,23.80
2017-12-31T05:04:48.899Z,23.90
2017-12-31T05:05:48.886Z,26.40
2017-12-31T05:06:48.876Z,25.70
2017-12-31T05:07:48.870Z,22.60
2017-12-31T05:08:48.861Z,19.60
2017-12-31T05:09:48.845Z,19.60
2017-12-31T05:10:48.836Z,18.30
2017-12-31T05:11:48.854Z,19.10
2017-12-31T05:12:48.821Z,19.10
2017-12-31T05:13:48.819Z,14.80
2017-12-31T05:14:48.804Z,16.60
2017-12-31T05:15:48.804Z,16.20
2017-12-31T05:16:48.818Z,18.30
2017-12-31T05:17:48.783Z,15.50
2017-12-31T05:18:48.781Z,16.70
2017-12-31T05:19:48.766Z,12.30
2017-12-31T05:20:48.755Z,15.20
2017-12-31T05:21:48.748Z,14.40
2017-12-31T05:22:48.739Z,15.10
2017-12-31T05:23:48.732Z,15.80
2017-12-31T05:24:48.731Z,14.80
2017-12-31T05:25:48.710Z,16.10
2017-12-31T05:26:48.703Z,10.20
2017-12-31T05:27:48.711Z,11.40
2017-12-31T05:28:48.691Z,13.80
2017-12-31T05:29:48.680Z,7.80
2017-12-31T05:30:48.666Z,8.60
2017-12-31T05:31:48.658Z,9.50
2017-12-31T05:32:48.647Z,9.10
2017-12-31T05:33:48.669Z,11.60
2017-12-31T05:34:48.634Z,11.70
2017-12-31T05:35:48.626Z,7.20
2017-12-31T05:36:48.624Z,9.60
2017-12-31T05:37:48.602Z,9.60
2017-12-31T05:38:48.603Z,12.40
2017-12-31T05:39:48.590Z,8.40
2017-12-31T05:40:48.610Z,12.50
2017-12-31T05:41:48.576Z,11.50
2017-12-31T05:42:48.563Z,6.60
2017-12-31T05:43:48.553Z,7.50
2017-12-31T05:44:48.544Z,4.90
2017-12-31T05:45:48.539Z,7.60
2017-12-31T05:46:48.530Z,7.60
2017-12-31T05:47:48.520Z,6.70
2017-12-31T05:48:48.514Z,9.80
2017-12-31T05:49:48.510Z,5.80
2017-12-31T05:50:48.493Z,9.60
2017-12-31T05:51:48.489Z,6.80
2017-12-31T05:52:48.481Z,7.80
2017-12-31T05:53:48.472Z,8.90
2017-12-31T05:54:48.467Z,8.70
2017-12-31T05:55:48.451Z,10.10
2017-12-31T05:56:48.448Z,10.50
2017-12-31T05:57:48.440Z,6.30
2017-12-31T05:58:48.427Z,8.90
2017-12-31T05:59:48.452Z,6.20
2017-12-31T06:00:50.112Z,9.40
2017-12-31T06:01:48.452Z,12.40
2017-12-31T06:02:48.400Z,8.40
2017-12-31T06:03:48.392Z,9.00
2017-12-31T06:04:48.378Z,9.10
2017-12-31T06:05:48.372Z,7.50
2017-12-31T06:06:48.365Z,10.20
2017-12-31T06:07:48.352Z,11.00
2017-12-31T06:08:48.360Z,7.90
2017-12-31T06:09:48.337Z,5.60
2017-12-31T06:10:48.331Z,7.00
2017-12-31T06:11:48.318Z,7.40
2017-12-31T06:12:48.329Z,8.90
2017-12-31T06:13:48.309Z,8.50
2017-12-31T06:14:48.296Z,8.90
2017-12-31T06:15:48.287Z,10.50
2017-12-31T06:16:48.283Z,8.10
2017-12-31T06:17:48.272Z,8.40
2017-12-31T06:18:48.264Z,10.80
2017-12-31T06:19:48.260Z,4.90
2017-12-31T06:20:48.260Z,7.90
2017-12-31T06:21:48.259Z,6.20
2017-12-31T06:22:48.237Z,8.50
2017-12-31T06:23:48.228Z,7.80
2017-12-31T06:24:48.237Z,8.50
2017-12-31T06:25:48.207Z,5.20
2017-12-31T06:26:48.209Z,7.40
2017-12-31T06:27:48.215Z,7.20
2017-12-31T06:28:48.191Z,7.40
2017-12-31T06:29:48.183Z,7.40
2017-12-31T06:30:48.168Z,4.90
2017-12-31T06:31:48.153Z,4.60
2017-12-31T06:32:48.153Z,9.70
2017-12-31T06:33:48.147Z,7.90
2017-12-31T06:34:48.141Z,7.30
2017-12-31T06:35:48.128Z,5.80
2017-12-31T06:36:48.129Z,7.30
2017-12-31T06:37:48.112Z,6.00
2017-12-31T06:38:48.104Z,6.50
2017-12-31T06:39:48.114Z,6.80
2017-12-31T06:40:48.090Z,8.20
2017-12-31T06:41:48.101Z,6.20
2017-12-31T06:42:48.070Z,4.80
2017-12-31T06:43:48.076Z,8.10
2017-12-31T06:44:48.077Z,7.90
2017-12-31T06:45:48.050Z,6.40
2017-12-31T06:46:48.036Z,9.10
2017-12-31T06:47:48.032Z,8.80
2017-12-31T06:48:48.021Z,7.20
2017-12-31T06:49:48.018Z,11.00
2017-12-31T06:50:48.010Z,7.50
2017-12-31T06:51:48.005Z,10.00
2017-12-31T06:52:47.991Z,7.60
2017-12-31T06:53:47.986Z,9.60
2017-12-31T06:54:50.627Z,6.90
2017-12-31T06:55:47.985Z,7.30
2017-12-31T06:56:47.962Z,9.50
2017-12-31T06:57:47.953Z,7.50
2017-12-31T06:58:47.959Z,9.40
2017-12-31T06:59:47.935Z,10.50
2017-12-31T07:00:47.939Z,8.10
2017-12-31T07:01:47.933Z,10.90
2017-12-31T07:02:47.939Z,9.30
2017-12-31T07:03:47.911Z,11.80
2017-12-31T07:04:47.902Z,10.70
2017-12-31T07:05:47.888Z,12.90
2017-12-31T07:06:47.915Z,11.70
2017-12-31T07:07:47.870Z,12.90
2017-12-31T07:08:47.891Z,8.30
2017-12-31T07:09:47.860Z,13.20
2017-12-31T07:10:47.856Z,14.50
2017-12-31T07:11:47.840Z,12.70
2017-12-31T07:12:47.837Z,12.30
2017-12-31T07:13:47.870Z,12.70
2017-12-31T07:14:47.821Z,18.00
2017-12-31T07:15:47.844Z,16.80
2017-12-31T07:16:47.803Z,14.10
2017-12-31T07:17:47.811Z,12.20
2017-12-31T07:18:47.790Z,13.30
2017-12-31T07:19:47.801Z,10.80
2017-12-31T07:20:47.777Z,13.10
2017-12-31T07:21:47.763Z,14.50
2017-12-31T07:22:47.777Z,15.30
2017-12-31T07:23:47.777Z,11.30
2017-12-31T07:24:47.741Z,12.70
2017-12-31T07:25:47.737Z,15.90
2017-12-31T07:26:47.739Z,11.40
2017-12-31T07:27:47.743Z,15.70
2017-12-31T07:28:47.728Z,17.00
2017-12-31T07:29:47.719Z,11.40
2017-12-31T07:30:47.719Z,14.80
2017-12-31T07:31:47.713Z,11.20
2017-12-31T07:32:47.677Z,11.70
2017-12-31T07:33:47.671Z,16.60
2017-12-31T07:34:47.676Z,14.70
2017-12-31T07:35:47.685Z,14.30
2017-12-31T07:36:47.666Z,15.80
2017-12-31T07:37:47.640Z,12.30
2017-12-31T07:38:47.653Z,13.50
2017-12-31T07:39:47.653Z,10.10
2017-12-31T07:40:47.614Z,12.40
2017-12-31T07:41:47.631Z,12.90
2017-12-31T07:42:47.614Z,13.70
2017-12-31T07:43:47.596Z,13.20
2017-12-31T07:44:47.586Z,14.40
2017-12-31T07:45:47.591Z,13.90
2017-12-31T07:46:47.572Z,10.50
2017-12-31T07:47:47.590Z,12.50
2017-12-31T07:48:47.553Z,12.30
2017-12-31T07:49:47.560Z,10.50
2017-12-31T07:50:47.557Z,10.20
2017-12-31T07:51:47.529Z,15.50
2017-12-31T07:52:47.573Z,10.80
2017-12-31T07:53:47.525Z,13.30
2017-12-31T07:54:47.511Z,7.10
2017-12-31T07:55:47.538Z,10.70
2017-12-31T07:56:47.492Z,9.00
2017-12-31T07:57:47.500Z,12.60
2017-12-31T07:58:47.472Z,13.20
2017-12-31T07:59:47.479Z,11.50
2017-12-31T08:00:47.478Z,11.00
2017-12-31T08:01:47.454Z,10.10
2017-12-31T08:02:47.443Z,11.80
2017-12-31T08:03:47.441Z,10.70
2017-12-31T08:04:47.433Z,13.30
2017-12-31T08:05:47.419Z,10.90
2017-12-31T08:06:47.417Z,9.80
2017-12-31T08:07:47.407Z,9.70
2017-12-31T08:08:47.416Z,11.80
2017-12-31T08:09:47.390Z,10.20
2017-12-31T08:10:47.382Z,9.50
2017-12-31T08:11:47.375Z,10.90
2017-12-31T08:12:47.365Z,10.50
2017-12-31T08:13:47.360Z,11.20
2017-12-31T08:14:47.350Z,11.80
2017-12-31T08:15:47.365Z,7.80
2017-12-31T08:16:47.333Z,9.50
2017-12-31T08:17:47.330Z,13.70
2017-12-31T08:18:47.326Z,12.90
2017-12-31T08:19:47.307Z,9.80
2017-12-31T08:20:47.311Z,9.00
2017-12-31T08:21:47.315Z,9.50
2017-12-31T08:22:47.303Z,7.10
2017-12-31T08:23:47.312Z,10.90
2017-12-31T08:24:47.278Z,10.40
2017-12-31T08:25:47.284Z,11.30
2017-12-31T08:26:47.258Z,14.40
2017-12-31T08:27:47.263Z,6.50
2017-12-31T08:28:47.251Z,12.00
2017-12-31T08:29:47.249Z,9.30
2017-12-31T08:30:47.226Z,11.70
2017-12-31T08:31:47.232Z,11.40
2017-12-31T08:32:47.214Z,7.80
2017-12-31T08:33:47.206Z,7.10
2017-12-31T08:34:47.195Z,8.70
2017-12-31T08:35:47.228Z,5.50
2017-12-31T08:36:47.190Z,9.60
2017-12-31T08:37:47.189Z,5.30
2017-12-31T08:38:47.167Z,6.00
2017-12-31T08:39:47.157Z,8.40
2017-12-31T08:40:47.151Z,8.80
2017-12-31T08:41:47.146Z,7.20
2017-12-31T08:42:47.134Z,4.00
2017-12-31T08:43:47.127Z,8.90
2017-12-31T08:44:47.145Z,7.80
2017-12-31T08:45:47.114Z,9.00
2017-12-31T08:46:47.105Z,6.80
2017-12-31T08:47:47.101Z,6.70
2017-12-31T08:48:47.100Z,9.20
2017-12-31T08:49:47.083Z,6.90
2017-12-31T08:50:47.072Z,8.10
2017-12-31T08:51:47.066Z,9.10
2017-12-31T08:52:47.056Z,11.10
2017-12-31T08:53:48.651Z,7.60
2017-12-31T08:54:47.047Z,6.70
2017-12-31T08:55:48.650Z,7.80
2017-12-31T08:56:47.024Z,8.00
2017-12-31T08:57:47.021Z,6.90
2017-12-31T08:58:47.040Z,7.10
2017-12-31T08:59:47.003Z,9.10
2017-12-31T09:00:46.999Z,7.10
2017-12-31T09:01:46.996Z,12.60
2017-12-31T09:02:47.017Z,8.10
2017-12-31T09:03:46.975Z,6.80
2017-12-31T09:04:46.989Z,7.10
2017-12-31T09:05:46.956Z,9.80
2017-12-31T09:06:46.950Z,9.80
2017-12-31T09:07:46.957Z,11.00
2017-12-31T09:08:46.945Z,6.90
2017-12-31T09:09:46.941Z,7.50
2017-12-31T09:10:46.937Z,6.50
2017-12-31T09:11:46.920Z,9.10
2017-12-31T09:12:46.915Z,9.00
2017-12-31T09:13:46.992Z,10.60
2017-12-31T09:14:46.886Z,13.10
2017-12-31T09:15:46.878Z,8.20
2017-12-31T09:16:46.886Z,11.40
2017-12-31T09:17:46.867Z,9.30
2017-12-31T09:18:46.858Z,7.10
2017-12-31T09:19:46.866Z,10.80
2017-12-31T09:20:46.840Z,5.10
2017-12-31T09:21:46.849Z,9.10
2017-12-31T09:22:48.680Z,8.80
2017-12-31T09:23:46.822Z,7.60
2017-12-31T09:24:46.813Z,8.40
2017-12-31T09:25:46.804Z,9.20
2017-12-31T09:26:46.803Z,7.80
2017-12-31T09:27:46.789Z,7.40
2017-12-31T09:28:46.824Z,5.60
2017-12-31T09:29:46.782Z,7.60
2017-12-31T09:30:46.780Z,3.80
2017-12-31T09:31:46.757Z,5.90
2017-12-31T09:32:46.764Z,9.70
2017-12-31T09:33:46.750Z,6.60
2017-12-31T09:34:46.742Z,11.10
2017-12-31T09:35:46.751Z,6.10
2017-12-31T09:36:46.765Z,8.00
2017-12-31T09:37:46.727Z,9.70
2017-12-31T09:38:46.706Z,6.50
2017-12-31T09:39:46.750Z,6.50
2017-12-31T09:40:46.701Z,7.60
2017-12-31T09:41:46.685Z,5.20
2017-12-31T09:42:46.686Z,5.60
2017-12-31T09:43:46.692Z,4.60
2017-12-31T09:44:46.667Z,6.40
2017-12-31T09:45:46.661Z,5.70
2017-12-31T09:46:46.645Z,6.20
2017-12-31T09:47:46.643Z,7.20
2017-12-31T09:48:46.642Z,5.60
2017-12-31T09:49:46.643Z,8.50
2017-12-31T09:50:46.629Z,8.50
2017-12-31T09:51:46.618Z,3.60
2017-12-31T09:52:46.610Z,7.50
2017-12-31T09:53:46.593Z,6.00
2017-12-31T09:54:46.590Z,6.10
2017-12-31T09:55:46.580Z,8.10
2017-12-31T09:56:46.597Z,6.70
2017-12-31T09:57:46.577Z,4.60
2017-12-31T09:58:46.557Z,6.50
2017-12-31T09:59:46.554Z,5.20
2017-12-31T10:00:46.542Z,11.50
2017-12-31T10:01:46.538Z,9.10
2017-12-31T10:02:46.528Z,9.00
2017-12-31T10:03:46.539Z,4.60
2017-12-31T10:04:46.533Z,9.20
2017-12-31T10:05:46.522Z,7.20
2017-12-31T10:06:46.533Z,7.20
2017-12-31T10:07:46.489Z,9.40
2017-12-31T10:08:46.488Z,2.70
2017-12-31T10:09:46.478Z,5.20
2017-12-31T10:10:46.465Z,5.70
2017-12-31T10:11:46.463Z,8.40
2017-12-31T10:12:46.460Z,7.00
2017-12-31T10:13:46.475Z,7.70
2017-12-31T10:14:46.442Z,6.60
2017-12-31T10:15:46.436Z,6.30
2017-12-31T10:16:48.172Z,6.80
2017-12-31T10:17:46.443Z,7.60
2017-12-31T10:18:46.428Z,10.60
2017-12-31T10:19:46.408Z,9.70
2017-12-31T10:20:46.410Z,3.60
2017-12-31T10:21:46.386Z,5.40
2017-12-31T10:22:46.380Z,11.80
2017-12-31T10:23:46.371Z,6.20
2017-12-31T10:24:46.364Z,4.40
2017-12-31T10:25:46.364Z,5.70
2017-12-31T10:26:46.399Z,6.70
2017-12-31T10:27:46.343Z,7.60
2017-12-31T10:28:46.337Z,7.70
2017-12-31T10:29:46.329Z,7.80
2017-12-31T10:30:46.320Z,9.70
2017-12-31T10:31:46.324Z,10.20
2017-12-31T10:32:46.306Z,11.30
2017-12-31T10:33:46.299Z,8.70
2017-12-31T10:34:46.297Z,6.20
2017-12-31T10:35:46.283Z,11.10
2017-12-31T10:36:46.276Z,9.50
2017-12-31T10:37:46.264Z,8.60
2017-12-31T10:38:46.259Z,7.40
2017-12-31T10:39:46.256Z,9.70
2017-12-31T10:40:46.281Z,7.00
2017-12-31T10:41:46.237Z,10.00
2017-12-31T10:42:46.229Z,7.70
2017-12-31T10:43:46.225Z,6.50
2017-12-31T10:44:46.226Z,7.30
2017-12-31T10:45:46.228Z,11.40
2017-12-31T10:46:46.233Z,12.90
2017-12-31T10:47:46.197Z,7.20
2017-12-31T10:48:47.702Z,9.50
2017-12-31T10:49:46.187Z,8.80
2017-12-31T10:50:46.173Z,5.80
2017-12-31T10:51:46.193Z,11.00
2017-12-31T10:52:46.294Z,12.90
2017-12-31T10:53:46.177Z,8.40
2017-12-31T10:54:46.182Z,8.70
2017-12-31T10:55:46.164Z,8.70
2017-12-31T10:56:46.130Z,10.40
2017-12-31T10:57:46.121Z,7.90
2017-12-31T10:58:46.114Z,7.20
2017-12-31T10:59:46.105Z,8.60
2017-12-31T11:00:46.097Z,7.10
2017-12-31T11:01:46.091Z,8.10
2017-12-31T11:02:46.087Z,9.70
2017-12-31T11:03:46.080Z,7.20
2017-12-31T11:04:46.088Z,5.30
2017-12-31T11:05:46.065Z,9.30
2017-12-31T11:06:46.064Z,8.30
2017-12-31T11:07:46.098Z,7.40
2017-12-31T11:08:46.050Z,12.20
2017-12-31T11:09:46.039Z,6.60
2017-12-31T11:10:46.035Z,10.30
2017-12-31T11:11:46.034Z,8.30
2017-12-31T11:12:46.025Z,6.60
2017-12-31T11:13:46.012Z,12.50
2017-12-31T11:14:46.053Z,7.20
2017-12-31T11:15:46.002Z,7.80
2017-12-31T11:16:46.012Z,7.90
2017-12-31T11:17:46.013Z,5.60
2017-12-31T11:18:45.986Z,9.50
2017-12-31T11:19:45.994Z,8.40
2017-12-31T11:20:45.966Z,8.40
2017-12-31T11:21:45.970Z,8.40
2017-12-31T11:22:45.955Z,8.30
2017-12-31T11:23:45.949Z,8.50
2017-12-31T11:24:45.950Z,7.40
2017-12-31T11:25:45.952Z,8.70
2017-12-31T11:26:45.925Z,5.70
2017-12-31T11:27:45.933Z,7.70
2017-12-31T11:28:45.914Z,5.20
2017-12-31T11:29:45.908Z,7.60
2017-12-31T11:30:45.901Z,7.90
2017-12-31T11:31:45.891Z,6.60
2017-12-31T11:32:49.694Z,7.90
2017-12-31T11:33:45.924Z,8.20
2017-12-31T11:34:45.868Z,9.90
2017-12-31T11:35:45.874Z,9.20
2017-12-31T11:36:45.923Z,7.10
2017-12-31T11:37:45.910Z,7.30
2017-12-31T11:38:45.858Z,8.30
2017-12-31T11:39:45.838Z,8.90
2017-12-31T11:40:45.865Z,7.30
2017-12-31T11:41:45.820Z,9.40
2017-12-31T11:42:45.822Z,6.80
2017-12-31T11:43:45.820Z,7.80
2017-12-31T11:44:47.722Z,7.70
2017-12-31T11:45:45.795Z,6.50
2017-12-31T11:46:45.792Z,8.60
2017-12-31T11:47:45.781Z,6.70
2017-12-31T11:48:45.788Z,7.00
2017-12-31T11:49:45.794Z,8.50
2017-12-31T11:50:45.766Z,6.10
2017-12-31T11:51:45.753Z,5.10
2017-12-31T11:52:45.746Z,9.00
2017-12-31T11:53:45.739Z,5.50
2017-12-31T11:54:45.732Z,7.00
2017-12-31T11:55:45.722Z,7.90
2017-12-31T11:56:45.716Z,6.80
2017-12-31T11:57:45.706Z,7.60
2017-12-31T11:58:45.702Z,5.90
2017-12-31T11:59:45.697Z,6.80
2017-12-31T12:00:45.707Z,5.90
2017-12-31T12:01:45.682Z,6.60
2017-12-31T12:02:45.678Z,7.00
2017-12-31T12:03:45.670Z,7.60
2017-12-31T12:04:45.677Z,6.50
2017-12-31T12:05:45.660Z,6.20
2017-12-31T12:06:45.665Z,7.00
2017-12-31T12:07:45.656Z,6.50
2017-12-31T12:08:45.642Z,8.00
2017-12-31T12:09:45.634Z,5.00
2017-12-31T12:10:45.672Z,7.60
2017-12-31T12:11:45.622Z,5.60
2017-12-31T12:12:47.210Z,8.20
2017-12-31T12:13:45.602Z,6.30
2017-12-31T12:14:45.694Z,4.70
2017-12-31T12:15:45.615Z,4.50
2017-12-31T12:16:45.637Z,9.20
2017-12-31T12:17:45.586Z,7.10
2017-12-31T12:18:45.581Z,4.90
2017-12-31T12:19:45.571Z,7.00
2017-12-31T12:20:45.576Z,6.70
2017-12-31T12:21:45.615Z,4.90
2017-12-31T12:22:45.548Z,7.40
2017-12-31T12:23:45.535Z,8.30
2017-12-31T12:24:45.537Z,3.60
2017-12-31T12:25:45.528Z,6.20
2017-12-31T12:26:45.547Z,7.70
2017-12-31T12:27:45.538Z,7.80
2017-12-31T12:28:45.538Z,8.30
2017-12-31T12:29:45.546Z,6.10
2017-12-31T12:30:45.515Z,7.70
2017-12-31T12:31:45.494Z,5.50
2017-12-31T12:32:45.484Z,5.40
2017-12-31T12:33:45.472Z,6.60
2017-12-31T12:34:45.468Z,5.10
2017-12-31T12:35:45.470Z,6.30
2017-12-31T12:36:45.466Z,8.70
2017-12-31T12:37:45.599Z,5.20
2017-12-31T12:38:45.492Z,6.90
2017-12-31T12:39:45.459Z,6.90
2017-12-31T12:40:45.457Z,5.70
2017-12-31T12:41:45.433Z,4.20
2017-12-31T12:42:45.436Z,5.10
2017-12-31T12:43:45.409Z,4.50
2017-12-31T12:44:45.409Z,5.40
2017-12-31T12:45:45.398Z,5.20
2017-12-31T12:46:45.387Z,6.00
2017-12-31T12:47:45.377Z,6.20
2017-12-31T12:48:45.373Z,5.80
2017-12-31T12:49:47.309Z,3.40
2017-12-31T12:50:45.392Z,4.20
2017-12-31T12:51:45.355Z,5.80
2017-12-31T12:52:45.339Z,5.30
2017-12-31T12:53:45.340Z,4.50
2017-12-31T12:54:45.362Z,7.60
2017-12-31T12:55:45.324Z,5.20
2017-12-31T12:56:45.330Z,7.00
2017-12-31T12:57:45.330Z,5.00
2017-12-31T12:58:45.305Z,6.80
2017-12-31T12:59:45.296Z,5.60
2017-12-31T13:00:45.316Z,6.00
2017-12-31T13:01:45.296Z,5.20
2017-12-31T13:02:45.275Z,3.50
2017-12-31T13:03:45.268Z,6.80
2017-12-31T13:04:45.272Z,5.80
2017-12-31T13:05:45.254Z,4.30